Capt. Jerry J. Wiltz — WDG4175 — position and weather

sailwx.info

Track history (hours):
 
Tides and Currents Weather Stations Pressure Air Temp Water Temp Dewpoint Dewpoint Depression Visibility Wind Speed Wind Dir Waves Ship Positions

Capt. Jerry J. Wiltz

Owner: Florida Marine, LLC, Mandeville, LA. More information available from US FCC via Universal Licensing System and Coast Guard Vessel Documentation Center.

Last reported at 2017-Sep-20 19:09 UTC. Time now 2017-Sep-22 02:52 UTC.
Position N 30°04' W 093°38'.

Length 27 m; draft 2.8 m.

Type: Towing. MMSI: 367533780.

Date/timePositionNaut miles runAvg speedWind from/ knotsBaromVisibWave heightAir tempDewpointWater temp
2017-Sep-20 19:09N 30°04' W 093°38'2 6.4
2017-Sep-20 18:54N 30°04' W 093°36'3 6.1
2017-Sep-20 18:28N 30°04' W 093°33'3 5.9
2017-Sep-20 18:00N 30°04' W 093°30'3 6.0
2017-Sep-20 17:30N 30°04' W 093°27'3 5.9
2017-Sep-20 17:00N 30°04' W 093°23'3 5.7
2017-Sep-20 16:30N 30°05' W 093°20'2 4.7
2017-Sep-20 16:00N 30°05' W 093°18'1 2.7
2017-Sep-20 15:30N 30°04' W 093°16'0 0.1
2017-Sep-20 15:00N 30°04' W 093°16'0 0.0
2017-Sep-20 14:00N 30°04' W 093°16'0 0.1
2017-Sep-20 13:30N 30°04' W 093°16'0 0.0
2017-Sep-20 13:00N 30°04' W 093°16'0 0.0
2017-Sep-20 12:30N 30°04' W 093°16'1 1.5
2017-Sep-20 12:00N 30°04' W 093°16'3 5.3
2017-Sep-20 11:30N 30°02' W 093°14'3 6.2
2017-Sep-20 11:00N 29°59' W 093°12'4 6.8
2017-Sep-20 10:29N 29°56' W 093°10'43 5.2
2017-Sep-20 02:11N 29°51' W 092°20'1 5.5
2017-Sep-20 01:58N 29°50' W 092°19'2 4.7
2017-Sep-20 01:30N 29°49' W 092°17'3 5.4
2017-Sep-20 01:00N 29°48' W 092°14'2 3.2
2017-Sep-20 00:30N 29°47' W 092°12'2 4.0
2017-Sep-20 00:00N 29°47' W 092°10'3 6.0
2017-Sep-19 23:30N 29°48' W 092°07'  
2017-Sep-16 22:27N 29°50' W 091°60'2 5.5
2017-Sep-16 22:00N 29°49' W 092°02'3 5.1
2017-Sep-16 21:30N 29°48' W 092°05'2 5.0
2017-Sep-16 21:00N 29°47' W 092°08'2 4.8
2017-Sep-16 20:30N 29°47' W 092°10'2 4.7
2017-Sep-16 20:00N 29°47' W 092°13'1 1.1
2017-Sep-16 19:30N 29°48' W 092°14'2 4.8
2017-Sep-16 19:00N 29°49' W 092°16'37 2.7
2017-Sep-16 05:01N 29°56' W 092°58'0 5.2
2017-Sep-16 04:59N 29°56' W 092°59'3 4.9
2017-Sep-16 04:22N 29°56' W 093°02'2 4.8
2017-Sep-16 03:59N 29°56' W 093°04'2 4.6
2017-Sep-16 03:30N 29°56' W 093°07'2 4.9
2017-Sep-16 03:00N 29°56' W 093°10'2 4.9
2017-Sep-16 02:30N 29°58' W 093°11'2 4.8
2017-Sep-16 02:00N 29°60' W 093°13'2 4.2
2017-Sep-16 01:28N 30°02' W 093°15'2 3.6
2017-Sep-16 01:00N 30°03' W 093°16'2 3.3
2017-Sep-16 00:30N 30°05' W 093°17'2 3.9
2017-Sep-16 00:00N 30°06' W 093°18'2 4.6
2017-Sep-15 23:30N 30°05' W 093°20'2 4.2
2017-Sep-15 23:00N 30°04' W 093°23'1 3.0
2017-Sep-15 22:30N 30°04' W 093°24'3 5.9
2017-Sep-15 22:00N 30°04' W 093°28'3 5.9
2017-Sep-15 21:30N 30°04' W 093°31'5 0.2
2017-Sep-14 16:30N 30°04' W 093°37'3 6.0
2017-Sep-14 16:00N 30°04' W 093°34'3 5.4
2017-Sep-14 15:30N 30°04' W 093°31'3 5.7
2017-Sep-14 15:00N 30°04' W 093°27'3 5.7
2017-Sep-14 14:30N 30°04' W 093°24'3 5.1
2017-Sep-14 14:00N 30°04' W 093°21'3 5.4
2017-Sep-14 13:30N 30°06' W 093°19'3 4.7
2017-Sep-14 12:56N 30°04' W 093°16'2 5.5
2017-Sep-14 12:30N 30°02' W 093°16'3 5.5
2017-Sep-14 12:00N 30°00' W 093°14'2 3.5
2017-Sep-14 11:30N 29°59' W 093°12'1 1.7
2017-Sep-14 11:00N 29°58' W 093°12'3 5.8
2017-Sep-14 10:30N 29°56' W 093°09'43 5.1
2017-Sep-14 02:08N 29°51' W 092°20'1 5.2
2017-Sep-14 01:51N 29°50' W 092°18'2 4.7
2017-Sep-14 01:30N 29°49' W 092°17'3 5.1
2017-Sep-14 01:00N 29°48' W 092°15'2 3.9
2017-Sep-14 00:30N 29°47' W 092°12'1 1.9
2017-Sep-14 00:00N 29°47' W 092°12'1 1.3
2017-Sep-13 23:30N 29°47' W 092°11'1 3.0
2017-Sep-13 23:00N 29°47' W 092°09'3 5.7
2017-Sep-13 22:30N 29°48' W 092°06'  
2017-Sep-11 11:26N 29°49' W 092°02'2 4.5
2017-Sep-11 11:00N 29°48' W 092°04'2 4.5
2017-Sep-11 10:30N 29°48' W 092°06'3 4.8
2017-Sep-11 09:59N 29°47' W 092°09'2 5.0
2017-Sep-11 09:30N 29°47' W 092°12'3 5.7
2017-Sep-11 09:00N 29°48' W 092°15'3 5.5
2017-Sep-11 08:29N 29°50' W 092°18'41 4.8
2017-Sep-10 23:52N 29°56' W 093°04'2 4.5
2017-Sep-10 23:28N 29°56' W 093°06'2 4.5
2017-Sep-10 23:00N 29°56' W 093°09'2 4.5
2017-Sep-10 22:30N 29°58' W 093°11'2 4.6
2017-Sep-10 22:00N 29°59' W 093°13'2 4.2
2017-Sep-10 21:30N 30°01' W 093°14'1 2.7
2017-Sep-10 21:00N 30°02' W 093°15'1 1.9
2017-Sep-10 20:30N 30°03' W 093°16'2 4.2
2017-Sep-10 20:00N 30°05' W 093°17'2 3.8
2017-Sep-10 19:30N 30°06' W 093°18'  
Track history (hours):
 
Tides and Currents Weather Stations Pressure Air Temp Water Temp Dewpoint Dewpoint Depression Visibility Wind Speed Wind Dir Waves Ship Positions

Capt. Jerry J. Wiltz

Owner: Florida Marine, LLC, Mandeville, LA. More information available from US FCC via Universal Licensing System and Coast Guard Vessel Documentation Center.

Last reported at 2017-Sep-20 19:09 UTC. Time now 2017-Sep-22 02:52 UTC.
Position N 30°04' W 093°38'.

Length 27 m; draft 2.8 m.

Type: Towing. MMSI: 367533780.

Date/timePositionNaut miles runAvg speedWind from/ knotsBaromVisibWave heightAir tempDewpointWater temp
2017-Sep-20 19:09N 30°04' W 093°38'2 6.4
2017-Sep-20 18:54N 30°04' W 093°36'3 6.1
2017-Sep-20 18:28N 30°04' W 093°33'3 5.9
2017-Sep-20 18:00N 30°04' W 093°30'3 6.0
2017-Sep-20 17:30N 30°04' W 093°27'3 5.9
2017-Sep-20 17:00N 30°04' W 093°23'3 5.7
2017-Sep-20 16:30N 30°05' W 093°20'2 4.7
2017-Sep-20 16:00N 30°05' W 093°18'1 2.7
2017-Sep-20 15:30N 30°04' W 093°16'0 0.1
2017-Sep-20 15:00N 30°04' W 093°16'0 0.0
2017-Sep-20 14:00N 30°04' W 093°16'0 0.1
2017-Sep-20 13:30N 30°04' W 093°16'0 0.0
2017-Sep-20 13:00N 30°04' W 093°16'0 0.0
2017-Sep-20 12:30N 30°04' W 093°16'1 1.5
2017-Sep-20 12:00N 30°04' W 093°16'3 5.3
2017-Sep-20 11:30N 30°02' W 093°14'3 6.2
2017-Sep-20 11:00N 29°59' W 093°12'4 6.8
2017-Sep-20 10:29N 29°56' W 093°10'43 5.2
2017-Sep-20 02:11N 29°51' W 092°20'1 5.5
2017-Sep-20 01:58N 29°50' W 092°19'2 4.7
2017-Sep-20 01:30N 29°49' W 092°17'3 5.4
2017-Sep-20 01:00N 29°48' W 092°14'2 3.2
2017-Sep-20 00:30N 29°47' W 092°12'2 4.0
2017-Sep-20 00:00N 29°47' W 092°10'3 6.0
2017-Sep-19 23:30N 29°48' W 092°07'  
2017-Sep-16 22:27N 29°50' W 091°60'2 5.5
2017-Sep-16 22:00N 29°49' W 092°02'3 5.1
2017-Sep-16 21:30N 29°48' W 092°05'2 5.0
2017-Sep-16 21:00N 29°47' W 092°08'2 4.8
2017-Sep-16 20:30N 29°47' W 092°10'2 4.7
2017-Sep-16 20:00N 29°47' W 092°13'1 1.1
2017-Sep-16 19:30N 29°48' W 092°14'2 4.8
2017-Sep-16 19:00N 29°49' W 092°16'37 2.7
2017-Sep-16 05:01N 29°56' W 092°58'0 5.2
2017-Sep-16 04:59N 29°56' W 092°59'3 4.9
2017-Sep-16 04:22N 29°56' W 093°02'2 4.8
2017-Sep-16 03:59N 29°56' W 093°04'2 4.6
2017-Sep-16 03:30N 29°56' W 093°07'2 4.9
2017-Sep-16 03:00N 29°56' W 093°10'2 4.9
2017-Sep-16 02:30N 29°58' W 093°11'2 4.8
2017-Sep-16 02:00N 29°60' W 093°13'2 4.2
2017-Sep-16 01:28N 30°02' W 093°15'2 3.6
2017-Sep-16 01:00N 30°03' W 093°16'2 3.3
2017-Sep-16 00:30N 30°05' W 093°17'2 3.9
2017-Sep-16 00:00N 30°06' W 093°18'2 4.6
2017-Sep-15 23:30N 30°05' W 093°20'2 4.2
2017-Sep-15 23:00N 30°04' W 093°23'1 3.0
2017-Sep-15 22:30N 30°04' W 093°24'3 5.9
2017-Sep-15 22:00N 30°04' W 093°28'3 5.9
2017-Sep-15 21:30N 30°04' W 093°31'5 0.2
2017-Sep-14 16:30N 30°04' W 093°37'3 6.0
2017-Sep-14 16:00N 30°04' W 093°34'3 5.4
2017-Sep-14 15:30N 30°04' W 093°31'3 5.7
2017-Sep-14 15:00N 30°04' W 093°27'3 5.7
2017-Sep-14 14:30N 30°04' W 093°24'3 5.1
2017-Sep-14 14:00N 30°04' W 093°21'3 5.4
2017-Sep-14 13:30N 30°06' W 093°19'3 4.7
2017-Sep-14 12:56N 30°04' W 093°16'2 5.5
2017-Sep-14 12:30N 30°02' W 093°16'3 5.5
2017-Sep-14 12:00N 30°00' W 093°14'2 3.5
2017-Sep-14 11:30N 29°59' W 093°12'1 1.7
2017-Sep-14 11:00N 29°58' W 093°12'3 5.8
2017-Sep-14 10:30N 29°56' W 093°09'43 5.1
2017-Sep-14 02:08N 29°51' W 092°20'1 5.2
2017-Sep-14 01:51N 29°50' W 092°18'2 4.7
2017-Sep-14 01:30N 29°49' W 092°17'3 5.1
2017-Sep-14 01:00N 29°48' W 092°15'2 3.9
2017-Sep-14 00:30N 29°47' W 092°12'1 1.9
2017-Sep-14 00:00N 29°47' W 092°12'1 1.3
2017-Sep-13 23:30N 29°47' W 092°11'1 3.0
2017-Sep-13 23:00N 29°47' W 092°09'3 5.7
2017-Sep-13 22:30N 29°48' W 092°06'  
2017-Sep-11 11:26N 29°49' W 092°02'2 4.5
2017-Sep-11 11:00N 29°48' W 092°04'2 4.5
2017-Sep-11 10:30N 29°48' W 092°06'3 4.8
2017-Sep-11 09:59N 29°47' W 092°09'2 5.0
2017-Sep-11 09:30N 29°47' W 092°12'3 5.7
2017-Sep-11 09:00N 29°48' W 092°15'3 5.5
2017-Sep-11 08:29N 29°50' W 092°18'41 4.8
2017-Sep-10 23:52N 29°56' W 093°04'2 4.5
2017-Sep-10 23:28N 29°56' W 093°06'2 4.5
2017-Sep-10 23:00N 29°56' W 093°09'2 4.5
2017-Sep-10 22:30N 29°58' W 093°11'2 4.6
2017-Sep-10 22:00N 29°59' W 093°13'2 4.2
2017-Sep-10 21:30N 30°01' W 093°14'1 2.7
2017-Sep-10 21:00N 30°02' W 093°15'1 1.9
2017-Sep-10 20:30N 30°03' W 093°16'2 4.2
2017-Sep-10 20:00N 30°05' W 093°17'2 3.8
2017-Sep-10 19:30N 30°06' W 093°18'  

Dump ship's entire track history